createdAt,value
2022-11-05T00:02:00.652Z,6.00
2022-11-05T00:05:05.941Z,7.75
2022-11-05T00:08:27.810Z,5.07
2022-11-05T00:11:18.296Z,5.68
2022-11-05T00:14:26.148Z,6.53
2022-11-05T00:17:13.606Z,5.45
2022-11-05T00:20:01.610Z,5.47
2022-11-05T00:23:07.148Z,6.32
2022-11-05T00:25:56.517Z,5.07
2022-11-05T00:28:45.422Z,4.80
2022-11-05T00:31:33.973Z,4.22
2022-11-05T00:34:21.616Z,4.85
2022-11-05T00:37:09.003Z,4.93
2022-11-05T00:39:56.493Z,6.20
2022-11-05T00:43:02.331Z,9.57
2022-11-05T00:45:51.217Z,5.03
2022-11-05T00:48:57.400Z,6.75
2022-11-05T00:51:44.754Z,5.22
2022-11-05T00:54:32.190Z,5.05
2022-11-05T00:57:19.741Z,5.50
2022-11-05T01:00:08.968Z,4.68
2022-11-05T01:03:04.478Z,5.07
2022-11-05T01:05:56.211Z,5.43
2022-11-05T01:08:47.557Z,5.00
2022-11-05T01:11:37.003Z,5.68
2022-11-05T01:14:24.849Z,4.10
2022-11-05T01:17:12.384Z,5.13
2022-11-05T01:20:01.374Z,4.55
2022-11-05T01:22:49.157Z,5.07
2022-11-05T01:25:36.935Z,5.05
2022-11-05T01:28:24.853Z,4.43
2022-11-05T01:31:14.144Z,5.18
2022-11-05T01:34:04.242Z,4.07
2022-11-05T01:36:53.507Z,6.55
2022-11-05T01:39:41.191Z,5.68
2022-11-05T01:42:29.950Z,7.97
2022-11-05T01:45:22.168Z,5.82
2022-11-05T01:48:17.311Z,4.53
2022-11-05T01:51:09.679Z,8.25
2022-11-05T01:54:04.730Z,4.80
2022-11-05T01:56:58.656Z,5.82
2022-11-05T01:59:52.805Z,5.38
2022-11-05T02:02:40.862Z,5.28
2022-11-05T02:05:29.671Z,4.28
2022-11-05T02:08:28.300Z,4.63
2022-11-05T02:11:23.578Z,6.25
2022-11-05T02:14:20.710Z,3.33
2022-11-05T02:17:20.218Z,5.07
2022-11-05T02:20:44.052Z,3.92
2022-11-05T02:24:23.080Z,4.68
2022-11-05T02:27:27.318Z,3.55
2022-11-05T02:30:43.352Z,6.15
2022-11-05T02:33:44.800Z,4.38
2022-11-05T02:36:47.486Z,4.97
2022-11-05T02:39:48.231Z,4.63
2022-11-05T02:42:47.104Z,3.75
2022-11-05T02:45:50.361Z,3.80
2022-11-05T02:48:50.501Z,3.80
2022-11-05T02:51:49.172Z,4.45
2022-11-05T02:54:44.119Z,4.22
2022-11-05T02:57:36.153Z,5.70
2022-11-05T03:00:50.915Z,4.60
2022-11-05T03:03:43.842Z,6.80
2022-11-05T03:06:53.123Z,9.02
2022-11-05T03:10:21.106Z,3.63
2022-11-05T03:13:24.649Z,4.63
2022-11-05T03:16:22.327Z,3.78
2022-11-05T03:19:24.033Z,3.47
2022-11-05T03:22:21.742Z,4.03
2022-11-05T03:25:26.549Z,4.35
2022-11-05T03:28:30.693Z,3.70
2022-11-05T03:31:53.154Z,3.70
2022-11-05T03:34:49.432Z,3.90
2022-11-05T03:37:46.949Z,4.40
2022-11-05T03:40:38.787Z,4.68
2022-11-05T03:43:34.080Z,3.70
2022-11-05T03:46:31.096Z,3.20
2022-11-05T03:49:26.209Z,4.63
2022-11-05T03:52:23.070Z,3.85
2022-11-05T03:55:16.112Z,3.92
2022-11-05T04:01:03.265Z,3.05
2022-11-05T04:03:54.669Z,3.13
2022-11-05T04:07:22.117Z,5.18
2022-11-05T04:10:33.944Z,3.53
2022-11-05T04:13:27.759Z,3.53
2022-11-05T04:16:32.839Z,3.10
2022-11-05T04:19:42.486Z,2.85
2022-11-05T04:22:51.920Z,4.80
2022-11-05T04:25:39.646Z,3.00
2022-11-05T04:28:47.368Z,2.75
2022-11-05T04:31:33.942Z,3.75
2022-11-05T04:34:23.435Z,4.20
2022-11-05T04:37:10.949Z,3.13
2022-11-05T04:39:58.365Z,5.50
2022-11-05T04:42:45.900Z,5.53
2022-11-05T04:45:35.418Z,4.53
2022-11-05T04:48:22.792Z,3.75
2022-11-05T04:51:11.602Z,6.20
2022-11-05T04:53:59.241Z,3.30
2022-11-05T04:56:46.655Z,3.13
2022-11-05T04:59:34.142Z,4.50
2022-11-05T05:02:21.591Z,3.65
2022-11-05T05:05:09.876Z,5.50
2022-11-05T05:08:02.992Z,3.63
2022-11-05T05:11:05.255Z,3.85
2022-11-05T05:13:52.862Z,5.63
2022-11-05T05:16:40.402Z,3.30
2022-11-05T05:19:28.239Z,3.55
2022-11-05T05:22:14.628Z,3.50
2022-11-05T05:25:04.481Z,3.53
2022-11-05T05:27:52.063Z,3.17
2022-11-05T05:30:39.575Z,4.22
2022-11-05T05:33:27.057Z,3.20
2022-11-05T05:36:15.412Z,3.03
2022-11-05T05:39:05.974Z,4.15
2022-11-05T05:41:55.503Z,3.30
2022-11-05T05:44:42.947Z,3.22
2022-11-05T05:47:30.508Z,4.93
2022-11-05T05:50:18.274Z,4.43
2022-11-05T05:53:06.056Z,3.92
2022-11-05T05:55:54.655Z,4.65
2022-11-05T05:58:43.803Z,8.45
2022-11-05T06:01:31.603Z,7.50
2022-11-05T06:04:19.423Z,10.63
2022-11-05T06:07:08.170Z,7.95
2022-11-05T06:09:56.070Z,3.95
2022-11-05T06:12:43.644Z,8.52
2022-11-05T06:15:35.819Z,6.45
2022-11-05T06:18:24.014Z,4.60
2022-11-05T06:21:14.748Z,4.30
2022-11-05T06:24:03.439Z,4.65
2022-11-05T06:26:50.783Z,3.63
2022-11-05T06:29:38.247Z,4.78
2022-11-05T06:32:26.998Z,4.30
2022-11-05T06:35:14.895Z,5.32
2022-11-05T06:38:03.111Z,4.40
2022-11-05T06:40:50.657Z,5.70
2022-11-05T06:43:38.531Z,7.78
2022-11-05T06:46:26.349Z,7.57
2022-11-05T06:49:15.133Z,10.25
2022-11-05T06:52:02.547Z,5.32
2022-11-05T06:54:50.068Z,6.32
2022-11-05T06:57:39.718Z,5.85
2022-11-05T07:00:27.508Z,5.28
2022-11-05T07:03:15.748Z,5.93
2022-11-05T07:06:07.234Z,5.85
2022-11-05T07:08:55.444Z,8.43
2022-11-05T07:11:42.977Z,4.50
2022-11-05T07:14:30.215Z,3.33
2022-11-05T07:17:19.297Z,3.85
2022-11-05T07:20:08.764Z,3.92
2022-11-05T07:23:04.463Z,4.65
2022-11-05T07:25:51.989Z,3.90
2022-11-05T07:28:40.020Z,4.03
2022-11-05T07:31:27.471Z,8.30
2022-11-05T07:34:15.202Z,6.50
2022-11-05T07:37:03.183Z,5.07
2022-11-05T07:39:52.199Z,9.55
2022-11-05T07:42:43.153Z,8.20
2022-11-05T07:45:32.224Z,7.25
2022-11-05T07:48:19.926Z,6.55
2022-11-05T07:51:07.556Z,6.18
2022-11-05T07:53:55.114Z,8.27
2022-11-05T07:56:44.106Z,7.78
2022-11-05T07:59:31.979Z,6.00
2022-11-05T08:02:19.817Z,9.80
2022-11-05T08:05:09.170Z,7.65
2022-11-05T08:07:58.853Z,6.40
2022-11-05T08:10:46.700Z,7.60
2022-11-05T08:13:36.689Z,6.35
2022-11-05T08:16:24.121Z,8.25
2022-11-05T08:19:12.112Z,7.65
2022-11-05T08:21:59.584Z,9.45
2022-11-05T08:24:47.542Z,7.78
2022-11-05T08:27:36.169Z,10.10
2022-11-05T08:30:25.467Z,12.85
2022-11-05T08:33:41.575Z,16.23
2022-11-05T08:36:29.238Z,14.90
2022-11-05T08:39:18.606Z,11.88
2022-11-05T08:42:15.404Z,12.57
2022-11-05T08:45:02.909Z,14.00
2022-11-05T08:47:51.751Z,11.85
2022-11-05T08:50:40.499Z,11.55
2022-11-05T08:53:32.939Z,13.55
2022-11-05T08:56:35.641Z,12.02
2022-11-05T08:59:36.089Z,12.93
2022-11-05T09:02:23.843Z,12.52
2022-11-05T09:05:12.881Z,13.45
2022-11-05T09:08:01.676Z,12.57
2022-11-05T09:10:50.771Z,14.07
2022-11-05T09:13:38.254Z,12.07
2022-11-05T09:16:27.917Z,13.35
2022-11-05T09:19:15.390Z,10.70
2022-11-05T09:22:04.671Z,11.27
2022-11-05T09:24:52.641Z,14.13
2022-11-05T09:27:41.429Z,12.07
2022-11-05T09:30:29.083Z,13.88
2022-11-05T09:33:18.687Z,11.82
2022-11-05T09:36:08.210Z,10.18
2022-11-05T09:38:57.931Z,13.52
2022-11-05T09:41:48.763Z,15.73
2022-11-05T09:44:45.174Z,9.70
2022-11-05T09:47:40.930Z,12.15
2022-11-05T09:50:37.649Z,10.93
2022-11-05T09:53:26.726Z,8.60
2022-11-05T09:56:26.587Z,10.23
2022-11-05T09:59:19.977Z,12.93
2022-11-05T10:02:20.555Z,10.23
2022-11-05T10:05:13.832Z,12.57
2022-11-05T10:08:08.394Z,11.80
2022-11-05T10:11:04.814Z,10.57
2022-11-05T10:14:00.364Z,9.05
2022-11-05T10:16:55.693Z,12.00
2022-11-05T10:19:49.028Z,13.48
2022-11-05T10:22:38.592Z,12.07
2022-11-05T10:25:33.104Z,10.35
2022-11-05T10:28:23.724Z,9.43
2022-11-05T10:31:17.528Z,9.52
2022-11-05T10:34:11.332Z,12.82
2022-11-05T10:36:59.046Z,9.77
2022-11-05T10:39:46.725Z,9.50
2022-11-05T10:42:52.088Z,10.68
2022-11-05T10:45:53.675Z,13.73
2022-11-05T10:48:58.781Z,11.20
2022-11-05T10:51:47.899Z,10.80
2022-11-05T10:54:37.354Z,12.25
2022-11-05T10:57:33.110Z,11.50
2022-11-05T11:00:28.922Z,12.80
2022-11-05T11:03:40.007Z,13.98
2022-11-05T11:06:34.531Z,15.93
2022-11-05T11:09:29.893Z,14.35
2022-11-05T11:12:24.790Z,13.95
2022-11-05T11:15:27.664Z,12.50
2022-11-05T11:18:35.870Z,12.57
2022-11-05T11:21:34.100Z,9.73
2022-11-05T11:24:23.856Z,10.63
2022-11-05T11:27:22.178Z,9.70
2022-11-05T11:30:20.769Z,11.27
2022-11-05T11:33:12.805Z,11.95
2022-11-05T11:36:05.497Z,10.40
2022-11-05T11:39:02.088Z,12.85
2022-11-05T11:47:21.423Z,14.77
2022-11-05T11:50:39.481Z,13.67
2022-11-05T11:53:35.828Z,13.23
2022-11-05T11:56:23.866Z,12.50
2022-11-05T11:59:46.915Z,10.95
2022-11-05T12:03:02.053Z,12.65
2022-11-05T12:06:02.988Z,11.95
2022-11-05T12:09:06.517Z,13.15
2022-11-05T12:12:04.933Z,15.52
2022-11-05T12:15:00.638Z,12.40
2022-11-05T12:17:56.843Z,11.35
2022-11-05T12:21:29.300Z,10.60
2022-11-05T12:24:56.351Z,12.98
2022-11-05T12:28:05.406Z,11.75
2022-11-05T12:31:04.433Z,9.38
2022-11-05T12:34:09.427Z,9.75
2022-11-05T12:37:17.796Z,11.02
2022-11-05T12:40:38.120Z,12.73
2022-11-05T12:43:44.726Z,11.98
2022-11-05T12:46:44.418Z,13.00
2022-11-05T12:50:01.999Z,8.88
2022-11-05T12:53:27.731Z,12.15
2022-11-05T12:56:21.584Z,12.23
2022-11-05T12:59:20.959Z,12.00
2022-11-05T13:02:22.374Z,9.30
2022-11-05T13:05:18.915Z,10.80
2022-11-05T13:08:16.053Z,10.63
2022-11-05T13:11:20.437Z,8.43
2022-11-05T13:14:14.943Z,9.82
2022-11-05T13:17:08.837Z,12.07
2022-11-05T13:20:06.609Z,10.77
2022-11-05T13:23:02.045Z,10.75
2022-11-05T13:25:56.696Z,9.45
2022-11-05T13:28:52.845Z,10.18
2022-11-05T13:31:44.801Z,10.00
2022-11-05T13:38:02.789Z,12.68
2022-11-05T13:41:17.291Z,9.98
2022-11-05T13:44:29.401Z,8.50
2022-11-05T13:47:39.722Z,9.38
2022-11-05T13:51:34.798Z,12.23
2022-11-05T13:58:48.407Z,8.98
2022-11-05T14:01:51.840Z,10.07
2022-11-05T14:04:46.101Z,10.27
2022-11-05T14:07:37.605Z,8.75
2022-11-05T14:10:39.939Z,9.88
2022-11-05T14:13:36.105Z,7.80
2022-11-05T14:16:26.741Z,10.18
2022-11-05T14:22:51.380Z,8.30
2022-11-05T14:25:57.609Z,10.70
2022-11-05T14:28:50.097Z,9.20
2022-11-05T14:32:08.279Z,8.48
2022-11-05T14:35:04.258Z,9.90
2022-11-05T14:37:56.152Z,9.52
2022-11-05T14:40:46.919Z,10.18
2022-11-05T14:43:36.239Z,9.43
2022-11-05T14:46:26.238Z,11.20
2022-11-05T14:49:20.939Z,8.90
2022-11-05T14:52:11.817Z,9.60
2022-11-05T14:55:00.334Z,10.10
2022-11-05T14:58:26.811Z,8.63
2022-11-05T15:01:57.441Z,9.32
2022-11-05T15:04:45.853Z,12.23
2022-11-05T15:07:39.275Z,8.32
2022-11-05T15:10:32.847Z,9.48
2022-11-05T15:13:32.428Z,8.95
2022-11-05T15:16:26.315Z,9.40
2022-11-05T15:19:23.950Z,9.77
2022-11-05T15:22:30.417Z,9.15
2022-11-05T15:25:25.281Z,9.60
2022-11-05T15:28:25.679Z,9.13
2022-11-05T15:31:30.219Z,8.88
2022-11-05T15:34:24.129Z,7.82
2022-11-05T15:37:26.590Z,6.10
2022-11-05T15:40:27.634Z,9.37
2022-11-05T15:43:19.569Z,5.90
2022-11-05T15:46:16.606Z,6.88
2022-11-05T15:49:08.924Z,6.10
2022-11-05T15:51:58.600Z,8.23
2022-11-05T15:54:47.393Z,12.63
2022-11-05T15:57:40.019Z,7.55
2022-11-05T16:03:29.595Z,6.95
2022-11-05T16:06:17.550Z,7.00
2022-11-05T16:09:06.853Z,9.48
2022-11-05T16:12:24.126Z,7.53
2022-11-05T16:15:23.874Z,8.40
2022-11-05T16:18:24.607Z,8.88
2022-11-05T16:21:15.936Z,8.60
2022-11-05T16:24:05.205Z,7.22
2022-11-05T16:27:02.702Z,8.20
2022-11-05T16:29:58.057Z,8.40
2022-11-05T16:32:47.502Z,7.78
2022-11-05T16:35:40.695Z,9.23
2022-11-05T16:38:29.294Z,8.13
2022-11-05T16:41:21.328Z,9.40
2022-11-05T16:44:11.351Z,10.57
2022-11-05T16:47:00.372Z,9.82
2022-11-05T16:49:49.278Z,10.27
2022-11-05T16:52:37.040Z,12.32
2022-11-05T16:55:24.467Z,11.32
2022-11-05T16:58:21.929Z,9.35
2022-11-05T17:01:17.760Z,8.95
2022-11-05T17:04:05.448Z,7.93
2022-11-05T17:06:53.223Z,7.43
2022-11-05T17:09:40.765Z,7.55
2022-11-05T17:12:28.264Z,9.30
2022-11-05T17:15:24.380Z,8.85
2022-11-05T17:18:18.263Z,8.15
2022-11-05T17:21:08.333Z,8.57
2022-11-05T17:23:56.013Z,8.98
2022-11-05T17:26:43.501Z,11.50
2022-11-05T17:29:30.990Z,16.60
2022-11-05T17:32:19.930Z,9.40
2022-11-05T17:35:08.248Z,8.43
2022-11-05T17:37:55.670Z,8.90
2022-11-05T17:40:43.951Z,13.88
2022-11-05T17:43:31.452Z,17.30
2022-11-05T17:46:19.552Z,12.52
2022-11-05T17:49:08.355Z,22.90
2022-11-05T17:51:56.028Z,11.00
2022-11-05T17:54:43.656Z,10.63
2022-11-05T17:57:31.155Z,9.82
2022-11-05T18:00:21.357Z,11.90
2022-11-05T18:03:10.498Z,14.10
2022-11-05T18:06:04.299Z,11.30
2022-11-05T18:08:51.716Z,11.13
2022-11-05T18:11:41.097Z,14.02
2022-11-05T18:14:29.008Z,11.88
2022-11-05T18:17:16.747Z,9.07
2022-11-05T18:20:06.784Z,11.15
2022-11-05T18:22:55.962Z,9.27
2022-11-05T18:25:44.186Z,9.98
2022-11-05T18:28:32.733Z,9.65
2022-11-05T18:31:22.268Z,9.27
2022-11-05T18:34:11.241Z,11.27
2022-11-05T18:36:58.813Z,11.05
2022-11-05T18:39:51.490Z,11.95
2022-11-05T18:42:39.681Z,11.55
2022-11-05T18:45:29.826Z,11.10
2022-11-05T18:48:17.766Z,14.23
2022-11-05T18:51:09.926Z,10.93
2022-11-05T18:54:34.830Z,10.90
2022-11-05T18:57:24.631Z,12.88
2022-11-05T19:00:13.860Z,12.95
2022-11-05T19:03:01.763Z,12.80
2022-11-05T19:05:49.391Z,14.75
2022-11-05T19:08:37.729Z,12.48
2022-11-05T19:11:27.638Z,12.38
2022-11-05T19:14:16.924Z,14.68
2022-11-05T19:17:05.292Z,11.43
2022-11-05T19:19:53.052Z,10.60
2022-11-05T19:22:40.694Z,9.60
2022-11-05T19:25:29.861Z,10.85
2022-11-05T19:28:17.639Z,13.68
2022-11-05T19:31:07.307Z,12.00
2022-11-05T19:33:56.212Z,11.85
2022-11-05T19:36:44.675Z,9.60
2022-11-05T19:39:32.233Z,10.50
2022-11-05T19:42:20.187Z,10.48
2022-11-05T19:45:43.120Z,9.90
2022-11-05T19:48:20.052Z,8.30
2022-11-05T19:51:10.806Z,9.93
2022-11-05T19:54:01.364Z,8.57
2022-11-05T19:56:52.332Z,9.10
2022-11-05T19:59:40.709Z,9.40
2022-11-05T20:02:28.684Z,8.00
2022-11-05T20:05:19.236Z,7.07
2022-11-05T20:08:07.341Z,8.32
2022-11-05T20:10:55.979Z,7.90
2022-11-05T20:13:43.513Z,8.23
2022-11-05T20:16:36.865Z,9.40
2022-11-05T20:19:25.001Z,8.23
2022-11-05T20:22:13.633Z,7.38
2022-11-05T20:25:00.996Z,6.85
2022-11-05T20:27:48.549Z,9.07
2022-11-05T20:30:36.723Z,7.80
2022-11-05T20:33:34.636Z,9.55
2022-11-05T20:36:25.608Z,8.30
2022-11-05T20:39:14.808Z,7.20
2022-11-05T20:42:02.370Z,9.90
2022-11-05T20:44:49.941Z,9.32
2022-11-05T20:47:38.305Z,6.50
2022-11-05T20:50:26.116Z,8.48
2022-11-05T20:53:14.978Z,8.98
2022-11-05T20:56:09.575Z,8.68
2022-11-05T20:58:58.960Z,8.50
2022-11-05T21:01:46.843Z,7.65
2022-11-05T21:04:34.734Z,8.77
2022-11-05T21:07:22.511Z,8.98
2022-11-05T21:10:10.960Z,10.07
2022-11-05T21:13:00.354Z,7.13
2022-11-05T21:15:51.129Z,7.57
2022-11-05T21:18:41.538Z,9.15
2022-11-05T21:21:29.500Z,7.78
2022-11-05T21:24:23.254Z,10.20
2022-11-05T21:27:11.025Z,9.10
2022-11-05T21:30:00.040Z,7.78
2022-11-05T21:32:50.946Z,9.40
2022-11-05T21:35:43.730Z,8.68
2022-11-05T21:38:31.503Z,8.07
2022-11-05T21:41:19.152Z,8.25
2022-11-05T21:44:06.885Z,7.70
2022-11-05T21:46:59.282Z,9.85
2022-11-05T21:49:47.423Z,7.97
2022-11-05T21:52:52.600Z,11.07
2022-11-05T21:56:48.180Z,7.85
2022-11-05T21:59:52.149Z,10.57
2022-11-05T22:02:41.826Z,10.00
2022-11-05T22:05:29.620Z,9.43
2022-11-05T22:08:17.517Z,8.27
2022-11-05T22:11:05.943Z,10.48
2022-11-05T22:13:54.139Z,10.00
2022-11-05T22:16:42.064Z,9.98
2022-11-05T22:19:50.118Z,9.18
2022-11-05T22:22:38.031Z,10.25
2022-11-05T22:25:25.658Z,8.90
2022-11-05T22:28:13.935Z,9.90
2022-11-05T22:31:01.815Z,9.68
2022-11-05T22:33:49.937Z,13.68
2022-11-05T22:36:39.512Z,10.05
2022-11-05T22:39:27.251Z,11.02
2022-11-05T22:42:15.374Z,10.18
2022-11-05T22:45:03.080Z,12.23
2022-11-05T22:47:50.810Z,11.75
2022-11-05T22:50:38.459Z,11.98
2022-11-05T22:53:27.800Z,13.02
2022-11-05T22:56:19.473Z,11.32
2022-11-05T22:59:12.030Z,9.55
2022-11-05T23:02:01.793Z,11.83
2022-11-05T23:04:52.710Z,9.50
2022-11-05T23:07:57.804Z,10.32
2022-11-05T23:11:04.310Z,10.10
2022-11-05T23:13:51.783Z,10.30
2022-11-05T23:16:57.945Z,9.45
2022-11-05T23:20:03.068Z,9.52
2022-11-05T23:23:08.409Z,11.82
2022-11-05T23:25:59.752Z,12.70
2022-11-05T23:28:47.780Z,11.57
2022-11-05T23:31:53.073Z,11.70
2022-11-05T23:34:41.098Z,10.25
2022-11-05T23:37:49.183Z,11.40
2022-11-05T23:40:57.162Z,11.43
2022-11-05T23:44:03.850Z,9.50
2022-11-05T23:47:09.068Z,10.88
2022-11-05T23:49:56.787Z,13.63
2022-11-05T23:52:44.346Z,10.75
2022-11-05T23:55:32.040Z,10.95
2022-11-05T23:58:21.088Z,13.32
